createdAt,value
2023-07-12T00:01:34.469Z,9.00
2023-07-12T00:04:05.239Z,7.70
2023-07-12T00:06:40.348Z,9.50
2023-07-12T00:09:15.394Z,9.30
2023-07-12T00:11:45.683Z,9.60
2023-07-12T00:14:15.994Z,9.00
2023-07-12T00:16:46.298Z,9.70
2023-07-12T00:19:17.704Z,8.90
2023-07-12T00:21:47.986Z,9.00
2023-07-12T00:24:18.274Z,9.50
2023-07-12T00:26:48.597Z,10.40
2023-07-12T00:29:18.960Z,9.80
2023-07-12T00:31:49.232Z,7.60
2023-07-12T00:34:19.474Z,8.40
2023-07-12T00:36:49.704Z,9.70
2023-07-12T00:39:19.896Z,10.10
2023-07-12T00:42:03.844Z,10.20
2023-07-12T00:44:37.690Z,9.90
2023-07-12T00:47:09.867Z,9.50
2023-07-12T00:49:40.196Z,9.30
2023-07-12T00:52:15.207Z,9.80
2023-07-12T00:54:55.504Z,8.60
2023-07-12T00:57:27.000Z,8.10
2023-07-12T00:59:59.362Z,6.70
2023-07-12T01:02:30.071Z,9.20
2023-07-12T01:05:01.997Z,8.60
2023-07-12T01:07:33.533Z,9.10
2023-07-12T01:10:04.270Z,9.40
2023-07-12T01:12:34.518Z,8.20
2023-07-12T01:15:07.000Z,8.80
2023-07-12T01:17:37.317Z,7.40
2023-07-12T01:20:09.521Z,7.80
2023-07-12T01:22:39.813Z,6.20
2023-07-12T01:25:11.189Z,6.10
2023-07-12T01:27:41.467Z,7.10
2023-07-12T01:30:13.536Z,7.10
2023-07-12T01:32:44.231Z,7.20
2023-07-12T01:35:16.584Z,6.30
2023-07-12T01:37:46.822Z,7.20
2023-07-12T01:40:17.272Z,7.50
2023-07-12T01:42:47.635Z,7.70
2023-07-12T01:45:18.028Z,7.40
2023-07-12T01:47:48.445Z,8.10
2023-07-12T01:50:18.950Z,7.10
2023-07-12T01:52:49.300Z,6.60
2023-07-12T01:55:19.831Z,7.60
2023-07-12T01:57:50.716Z,7.60
2023-07-12T02:00:21.144Z,7.60
2023-07-12T02:02:51.424Z,8.10
2023-07-12T02:05:23.005Z,7.20
2023-07-12T02:07:57.248Z,8.70
2023-07-12T02:10:29.011Z,7.80
2023-07-12T02:12:59.276Z,8.70
2023-07-12T02:15:29.644Z,6.50
2023-07-12T02:18:00.318Z,7.10
2023-07-12T02:20:30.752Z,7.00
2023-07-12T02:23:01.195Z,8.10
2023-07-12T02:25:31.505Z,8.20
2023-07-12T02:28:01.870Z,7.00
2023-07-12T02:33:03.764Z,8.20
2023-07-12T02:35:34.825Z,7.70
2023-07-12T02:38:05.547Z,6.60
2023-07-12T02:40:35.805Z,7.50
2023-07-12T02:43:06.064Z,7.80
2023-07-12T02:45:36.391Z,7.10
2023-07-12T02:48:07.550Z,7.80
2023-07-12T02:50:37.803Z,7.00
2023-07-12T02:53:18.071Z,7.40
2023-07-12T02:55:52.453Z,8.10
2023-07-12T02:58:23.662Z,7.60
2023-07-12T03:00:59.179Z,7.80
2023-07-12T03:03:30.566Z,7.30
2023-07-12T03:06:06.228Z,7.00
2023-07-12T03:08:36.835Z,7.00
2023-07-12T03:11:08.234Z,8.00
2023-07-12T03:13:38.900Z,7.30
2023-07-12T03:16:10.305Z,8.20
2023-07-12T03:18:40.530Z,8.20
2023-07-12T03:21:12.189Z,7.70
2023-07-12T03:23:43.896Z,6.90
2023-07-12T03:26:14.285Z,8.20
2023-07-12T03:28:44.585Z,7.40
2023-07-12T03:31:17.173Z,7.70
2023-07-12T03:36:17.449Z,8.60
2023-07-12T03:38:47.675Z,7.80
2023-07-12T03:41:19.809Z,8.00
2023-07-12T03:43:50.596Z,7.70
2023-07-12T03:46:21.215Z,7.70
2023-07-12T03:48:51.467Z,8.30
2023-07-12T03:51:23.792Z,6.80
2023-07-12T03:53:54.498Z,9.80
2023-07-12T03:56:24.729Z,9.60
2023-07-12T03:58:55.082Z,8.30
2023-07-12T04:01:25.376Z,9.10
2023-07-12T04:03:55.669Z,8.70
2023-07-12T04:06:25.951Z,8.30
2023-07-12T04:08:56.339Z,8.30
2023-07-12T04:11:28.373Z,8.70
2023-07-12T04:14:00.290Z,9.00
2023-07-12T04:16:31.380Z,9.10
2023-07-12T04:19:02.152Z,9.70
2023-07-12T04:21:32.520Z,9.50
2023-07-12T04:24:02.715Z,8.70
2023-07-12T04:26:33.985Z,10.00
2023-07-12T04:29:04.311Z,9.30
2023-07-12T04:31:34.777Z,9.60
2023-07-12T04:34:05.105Z,10.30
2023-07-12T04:36:35.639Z,9.60
2023-07-12T04:39:06.440Z,9.00
2023-07-12T04:41:36.843Z,9.90
2023-07-12T04:44:07.192Z,10.30
2023-07-12T04:46:39.366Z,11.00
2023-07-12T04:49:10.164Z,9.60
2023-07-12T04:51:40.385Z,10.00
2023-07-12T04:54:10.810Z,10.20
2023-07-12T04:56:41.056Z,10.00
2023-07-12T04:59:11.199Z,11.50
2023-07-12T05:01:41.426Z,10.80
2023-07-12T05:04:11.787Z,11.60
2023-07-12T05:06:41.998Z,10.50
2023-07-12T05:09:12.531Z,9.60
2023-07-12T05:11:42.641Z,7.00
2023-07-12T05:14:12.787Z,7.60
2023-07-12T05:16:42.959Z,6.90
2023-07-12T05:19:13.311Z,4.40
2023-07-12T05:21:43.502Z,4.10
2023-07-12T05:24:13.702Z,4.10
2023-07-12T05:26:43.937Z,3.90
2023-07-12T05:29:15.573Z,3.80
2023-07-12T05:31:46.147Z,3.40
2023-07-12T05:34:16.525Z,3.30
2023-07-12T05:36:46.937Z,3.00
2023-07-12T05:39:17.219Z,3.20
2023-07-12T05:41:47.385Z,2.90
2023-07-12T05:44:17.694Z,2.30
2023-07-12T05:46:47.918Z,2.00
2023-07-12T05:49:18.136Z,2.00
2023-07-12T05:51:48.394Z,2.60
2023-07-12T05:54:18.591Z,2.10
2023-07-12T05:56:48.882Z,2.30
2023-07-12T05:59:20.025Z,2.20
2023-07-12T06:01:50.251Z,3.60
2023-07-12T06:04:21.986Z,2.50
2023-07-12T06:06:53.864Z,3.60
2023-07-12T06:09:24.047Z,3.80
2023-07-12T06:11:54.221Z,4.30
2023-07-12T06:14:24.606Z,4.10
2023-07-12T06:16:55.058Z,4.20
2023-07-12T06:19:25.374Z,4.40
2023-07-12T06:21:55.767Z,5.00
2023-07-12T06:24:26.372Z,5.00
2023-07-12T06:26:56.994Z,4.90
2023-07-12T06:29:27.319Z,5.00
2023-07-12T06:31:57.603Z,4.80
2023-07-12T06:34:27.837Z,4.50
2023-07-12T06:36:58.747Z,4.30
2023-07-12T06:39:29.417Z,4.80
2023-07-12T06:41:59.771Z,4.40
2023-07-12T06:44:35.774Z,4.20
2023-07-12T06:47:06.423Z,4.30
2023-07-12T06:49:36.985Z,4.00
2023-07-12T06:52:08.365Z,3.80
2023-07-12T06:54:38.836Z,3.80
2023-07-12T06:57:09.561Z,3.80
2023-07-12T06:59:40.042Z,3.80
2023-07-12T07:02:12.188Z,3.70
2023-07-12T07:04:42.384Z,3.70
2023-07-12T07:07:12.544Z,3.20
2023-07-12T07:09:42.744Z,3.00
2023-07-12T07:12:13.093Z,2.90
2023-07-12T07:14:43.318Z,2.60
2023-07-12T07:17:13.616Z,2.80
2023-07-12T07:19:44.026Z,3.20
2023-07-12T07:22:14.290Z,3.00
2023-07-12T07:24:44.994Z,2.10
2023-07-12T07:27:15.422Z,2.20
2023-07-12T07:29:45.612Z,1.90
2023-07-12T07:32:15.829Z,1.60
2023-07-12T07:34:46.201Z,1.90
2023-07-12T07:37:17.064Z,2.00
2023-07-12T07:39:47.329Z,1.80
2023-07-12T07:42:17.564Z,2.10
2023-07-12T07:44:47.747Z,2.00
2023-07-12T07:47:18.283Z,2.00
2023-07-12T07:49:48.444Z,2.20
2023-07-12T07:52:18.844Z,2.20
2023-07-12T07:54:49.127Z,2.00
2023-07-12T07:57:19.328Z,2.20
2023-07-12T07:59:49.548Z,1.80
2023-07-12T08:02:19.995Z,1.60
2023-07-12T08:04:50.471Z,1.60
2023-07-12T08:07:20.755Z,1.80
2023-07-12T08:09:51.871Z,1.50
2023-07-12T08:12:22.386Z,1.80
2023-07-12T08:14:52.857Z,1.90
2023-07-12T08:17:23.635Z,2.00
2023-07-12T08:19:54.266Z,2.00
2023-07-12T08:22:25.412Z,1.90
2023-07-12T08:24:55.653Z,2.00
2023-07-12T08:27:25.975Z,1.60
2023-07-12T08:29:56.448Z,1.80
2023-07-12T08:34:59.765Z,1.90
2023-07-12T08:37:31.694Z,1.40
2023-07-12T08:42:42.411Z,1.90
2023-07-12T08:45:22.724Z,1.90
2023-07-12T08:47:55.799Z,1.80
2023-07-12T08:50:27.613Z,1.90
2023-07-12T08:55:29.291Z,1.60
2023-07-12T08:58:20.634Z,1.80
2023-07-12T09:00:58.439Z,1.90
2023-07-12T09:03:28.743Z,1.80
2023-07-12T09:05:59.979Z,1.80
2023-07-12T09:08:35.590Z,2.00
2023-07-12T09:11:06.208Z,2.00
2023-07-12T09:13:39.154Z,2.20
2023-07-12T09:16:31.046Z,1.80
2023-07-12T09:19:03.395Z,2.00
2023-07-12T09:21:39.613Z,1.40
2023-07-12T09:24:15.096Z,2.00
2023-07-12T09:26:46.426Z,2.00
2023-07-12T09:29:17.942Z,2.00
2023-07-12T09:31:49.032Z,2.20
2023-07-12T09:34:23.800Z,1.90
2023-07-12T09:36:59.969Z,2.40
2023-07-12T09:39:30.756Z,2.40
2023-07-12T09:42:03.361Z,2.30
2023-07-12T09:44:34.198Z,2.20
2023-07-12T09:47:07.629Z,1.80
2023-07-12T09:49:42.520Z,1.90
2023-07-12T09:52:19.718Z,2.40
2023-07-12T09:54:54.853Z,2.50
2023-07-12T09:57:40.396Z,2.20
2023-07-12T10:00:24.296Z,2.10
2023-07-12T10:03:11.784Z,3.40
2023-07-12T10:05:46.828Z,2.40
2023-07-12T10:08:18.617Z,2.80
2023-07-12T10:10:55.660Z,3.20
2023-07-12T10:13:37.632Z,2.60
2023-07-12T10:16:12.035Z,2.50
2023-07-12T10:18:42.848Z,2.80
2023-07-12T10:21:15.811Z,2.60
2023-07-12T10:23:51.285Z,2.60
2023-07-12T10:26:22.029Z,2.60
2023-07-12T10:28:57.161Z,2.60
2023-07-12T10:31:35.993Z,2.60
2023-07-12T10:34:14.592Z,2.50
2023-07-12T10:36:46.212Z,2.10
2023-07-12T10:39:16.438Z,2.20
2023-07-12T10:41:48.780Z,2.30
2023-07-12T10:44:22.268Z,2.10
2023-07-12T10:46:58.604Z,3.00
2023-07-12T10:49:44.857Z,1.90
2023-07-12T10:52:28.615Z,1.80
2023-07-12T10:55:20.221Z,1.90
2023-07-12T10:57:51.823Z,2.00
2023-07-12T11:03:04.847Z,2.00
2023-07-12T11:05:44.625Z,1.70
2023-07-12T11:08:42.077Z,2.00
2023-07-12T11:11:42.288Z,1.80
2023-07-12T11:14:26.621Z,1.90
2023-07-12T11:17:15.827Z,1.80
2023-07-12T11:19:49.814Z,1.90
2023-07-12T11:22:22.213Z,1.80
2023-07-12T11:24:57.082Z,2.00
2023-07-12T11:27:54.982Z,1.60
2023-07-12T11:30:39.335Z,2.00
2023-07-12T11:33:17.357Z,1.70
2023-07-12T11:35:50.137Z,1.40
2023-07-12T11:38:25.604Z,1.60
2023-07-12T11:40:58.909Z,1.50
2023-07-12T11:43:35.682Z,1.60
2023-07-12T11:46:16.862Z,1.50
2023-07-12T11:48:57.875Z,1.60
2023-07-12T11:51:36.655Z,1.60
2023-07-12T11:54:21.113Z,1.90
2023-07-12T11:56:53.640Z,1.90
2023-07-12T11:59:31.146Z,1.70
2023-07-12T12:02:03.658Z,1.80
2023-07-12T12:04:35.787Z,1.40
2023-07-12T12:07:17.649Z,1.70
2023-07-12T12:09:49.691Z,1.90
2023-07-12T12:12:24.677Z,1.90
2023-07-12T12:14:57.386Z,2.10
2023-07-12T12:17:33.445Z,1.80
2023-07-12T12:20:16.064Z,1.80
2023-07-12T12:22:55.498Z,2.00
2023-07-12T12:25:31.025Z,2.00
2023-07-12T12:28:07.694Z,2.00
2023-07-12T12:30:40.207Z,1.80
2023-07-12T12:33:27.718Z,2.00
2023-07-12T12:45:11.584Z,1.70
2023-07-12T12:57:48.856Z,1.70
2023-07-12T12:59:46.362Z,1.70
2023-07-12T13:06:29.367Z,1.90
2023-07-12T13:21:56.055Z,1.70
2023-07-12T13:24:26.408Z,1.80
2023-07-12T13:26:56.577Z,2.00
2023-07-12T13:29:26.808Z,1.90
2023-07-12T13:31:57.043Z,1.90
2023-07-12T13:36:06.755Z,2.10
2023-07-12T13:37:27.500Z,2.00
2023-07-12T13:39:58.928Z,1.90
2023-07-12T13:45:16.920Z,1.90
2023-07-12T13:47:50.871Z,1.80
2023-07-12T13:50:22.108Z,1.90
2023-07-12T13:52:52.381Z,2.00
2023-07-12T13:55:24.498Z,1.90
2023-07-12T13:57:54.730Z,1.90
2023-07-12T14:00:26.948Z,2.20
2023-07-12T14:08:36.734Z,2.00
2023-07-12T14:10:58.038Z,2.00
2023-07-12T14:13:28.220Z,1.90
2023-07-12T14:15:58.368Z,1.90
2023-07-12T14:18:28.649Z,2.10
2023-07-12T14:20:59.039Z,2.00
2023-07-12T14:23:29.853Z,2.10
2023-07-12T14:26:00.067Z,2.20
2023-07-12T14:28:40.400Z,2.00
2023-07-12T14:31:15.529Z,2.80
2023-07-12T14:33:46.572Z,1.90
2023-07-12T14:38:47.244Z,1.70
2023-07-12T14:41:21.420Z,1.90
2023-07-12T14:43:52.507Z,2.40
2023-07-12T14:46:22.733Z,2.40
2023-07-12T14:48:52.958Z,2.20
2023-07-12T14:51:25.540Z,2.00
2023-07-12T14:53:55.709Z,1.80
2023-07-12T14:56:26.729Z,1.90
2023-07-12T14:58:57.400Z,2.30
2023-07-12T15:01:29.908Z,2.20
2023-07-12T15:04:08.560Z,2.00
2023-07-12T15:06:39.217Z,2.10
2023-07-12T15:09:14.020Z,2.20
2023-07-12T15:11:47.849Z,2.00
2023-07-12T15:14:18.391Z,2.00
2023-07-12T15:16:53.185Z,1.80
2023-07-12T15:19:23.471Z,1.80
2023-07-12T15:21:54.491Z,1.50
2023-07-12T15:26:53.464Z,1.80
2023-07-12T15:29:24.329Z,1.60
2023-07-12T15:34:23.757Z,1.80
2023-07-12T15:37:16.632Z,1.60
2023-07-12T15:39:47.330Z,1.70
2023-07-12T15:42:20.919Z,1.70
2023-07-12T15:44:53.039Z,2.80
2023-07-12T15:47:23.682Z,2.50
2023-07-12T15:49:53.993Z,2.30
2023-07-12T15:52:28.196Z,2.20
2023-07-12T15:54:58.419Z,1.70
2023-07-12T15:57:29.017Z,1.80
2023-07-12T15:59:59.794Z,2.00
2023-07-12T16:02:30.385Z,1.50
2023-07-12T16:05:00.583Z,1.50
2023-07-12T16:07:30.874Z,1.40
2023-07-12T16:10:01.119Z,1.50
2023-07-12T16:12:31.357Z,1.40
2023-07-12T16:15:01.737Z,1.50
2023-07-12T16:17:32.025Z,1.40
2023-07-12T16:20:02.346Z,1.60
2023-07-12T16:22:32.527Z,1.60
2023-07-12T16:25:03.939Z,1.40
2023-07-12T16:27:34.223Z,1.50
2023-07-12T16:30:05.886Z,1.30
2023-07-12T16:32:36.224Z,1.80
2023-07-12T16:35:09.546Z,1.30
2023-07-12T16:37:39.856Z,1.30
2023-07-12T16:40:12.003Z,1.30
2023-07-12T16:42:44.907Z,1.20
2023-07-12T16:45:28.782Z,1.20
2023-07-12T16:47:59.534Z,1.20
2023-07-12T16:50:30.220Z,1.20
2023-07-12T16:53:00.456Z,1.50
2023-07-12T16:55:34.150Z,1.00
2023-07-12T16:58:06.521Z,1.20
2023-07-12T17:00:36.896Z,1.20
2023-07-12T17:03:07.784Z,1.40
2023-07-12T17:05:38.340Z,1.40
2023-07-12T17:08:15.628Z,1.50
2023-07-12T17:10:46.458Z,1.30
2023-07-12T17:13:18.167Z,1.40
2023-07-12T17:15:49.553Z,1.50
2023-07-12T17:18:21.928Z,1.30
2023-07-12T17:20:53.685Z,1.20
2023-07-12T17:23:27.396Z,1.40
2023-07-12T17:26:01.299Z,1.40
2023-07-12T17:28:33.914Z,1.20
2023-07-12T17:31:13.819Z,1.20
2023-07-12T17:33:44.091Z,1.30
2023-07-12T17:36:15.650Z,1.30
2023-07-12T17:38:46.462Z,1.40
2023-07-12T17:41:20.330Z,1.50
2023-07-12T17:43:50.986Z,1.20
2023-07-12T17:46:21.542Z,1.10
2023-07-12T17:48:53.286Z,1.30
2023-07-12T17:51:25.396Z,1.50
2023-07-12T17:53:56.585Z,1.40
2023-07-12T17:56:26.939Z,1.40
2023-07-12T17:58:57.212Z,1.20
2023-07-12T18:01:30.530Z,1.60
2023-07-12T18:04:01.695Z,1.30
2023-07-12T18:06:34.188Z,1.20
2023-07-12T18:09:05.583Z,1.50
2023-07-12T18:11:41.117Z,1.20
2023-07-12T18:14:18.156Z,1.30
2023-07-12T18:16:48.784Z,1.30
2023-07-12T18:19:19.282Z,1.20
2023-07-12T18:21:50.242Z,1.20
2023-07-12T18:24:22.655Z,1.30
2023-07-12T18:26:53.116Z,1.40
2023-07-12T18:29:23.446Z,1.20
2023-07-12T18:31:54.384Z,1.30
2023-07-12T18:34:25.118Z,1.30
2023-07-12T18:36:55.573Z,1.50
2023-07-12T18:39:26.018Z,1.10
2023-07-12T18:41:58.593Z,2.00
2023-07-12T18:44:30.530Z,1.20
2023-07-12T18:47:02.511Z,1.30
2023-07-12T18:49:33.576Z,1.50
2023-07-12T18:52:04.700Z,1.20
2023-07-12T18:54:35.063Z,1.30
2023-07-12T18:57:05.739Z,1.30
2023-07-12T18:59:37.059Z,1.30
2023-07-12T19:02:16.385Z,1.20
2023-07-12T19:04:47.195Z,1.60
2023-07-12T19:07:22.493Z,1.30
2023-07-12T19:09:53.377Z,1.30
2023-07-12T19:12:24.937Z,0.90
2023-07-12T19:15:02.041Z,1.20
2023-07-12T19:17:33.132Z,1.10
2023-07-12T19:20:03.896Z,1.10
2023-07-12T19:22:34.327Z,1.10
2023-07-12T19:25:05.165Z,1.30
2023-07-12T19:27:43.184Z,1.30
2023-07-12T19:30:17.694Z,1.30
2023-07-12T19:32:48.066Z,1.20
2023-07-12T19:35:25.140Z,1.40
2023-07-12T19:37:56.192Z,1.40
2023-07-12T19:40:28.716Z,1.30
2023-07-12T19:42:59.749Z,1.20
2023-07-12T19:45:30.432Z,1.80
2023-07-12T19:48:01.056Z,1.60
2023-07-12T19:50:33.316Z,1.20
2023-07-12T19:53:06.578Z,1.40
2023-07-12T19:55:36.998Z,1.30
2023-07-12T19:58:07.313Z,1.20
2023-07-12T20:00:37.724Z,1.80
2023-07-12T20:03:09.523Z,1.30
2023-07-12T20:05:41.088Z,1.70
2023-07-12T20:08:11.444Z,1.60
2023-07-12T20:10:41.795Z,1.20
2023-07-12T20:13:12.215Z,1.70
2023-07-12T20:15:42.514Z,1.20
2023-07-12T20:18:12.879Z,1.30
2023-07-12T20:20:53.469Z,1.30
2023-07-12T20:23:24.029Z,1.40
2023-07-12T20:25:56.634Z,1.40
2023-07-12T20:28:29.426Z,1.50
2023-07-12T20:31:00.800Z,1.20
2023-07-12T20:33:31.504Z,1.80
2023-07-12T20:36:01.700Z,1.40
2023-07-12T20:38:32.402Z,1.50
2023-07-12T20:41:02.716Z,1.40
2023-07-12T20:43:33.329Z,1.40
2023-07-12T20:46:04.531Z,1.90
2023-07-12T20:48:37.149Z,1.40
2023-07-12T20:53:37.064Z,1.80
2023-07-12T20:56:08.538Z,1.40
2023-07-12T20:58:39.046Z,1.70
2023-07-12T21:01:16.915Z,1.80
2023-07-12T21:03:48.122Z,1.50
2023-07-12T21:06:19.054Z,1.40
2023-07-12T21:08:49.806Z,1.40
2023-07-12T21:11:21.528Z,1.30
2023-07-12T21:13:52.799Z,1.50
2023-07-12T21:16:23.664Z,1.40
2023-07-12T21:18:54.423Z,1.40
2023-07-12T21:21:25.108Z,1.50
2023-07-12T21:23:55.819Z,1.40
2023-07-12T21:26:27.236Z,2.00
2023-07-12T21:28:57.874Z,1.50
2023-07-12T21:31:28.733Z,1.70
2023-07-12T21:33:59.728Z,1.60
2023-07-12T21:36:30.848Z,1.60
2023-07-12T21:39:01.660Z,1.70
2023-07-12T21:41:32.525Z,1.50
2023-07-12T21:44:03.038Z,1.70
2023-07-12T21:46:33.566Z,2.40
2023-07-12T21:49:04.264Z,1.70
2023-07-12T21:51:35.318Z,1.70
2023-07-12T21:54:07.147Z,1.70
2023-07-12T21:56:37.750Z,1.60
2023-07-12T21:59:08.231Z,1.50
2023-07-12T22:01:39.136Z,1.50
2023-07-12T22:04:09.913Z,1.70
2023-07-12T22:06:43.772Z,1.40
2023-07-12T22:09:14.575Z,1.80
2023-07-12T22:11:45.248Z,1.40
2023-07-12T22:14:16.011Z,1.70
2023-07-12T22:16:47.094Z,2.10
2023-07-12T22:19:17.982Z,1.40
2023-07-12T22:21:53.018Z,1.60
2023-07-12T22:24:23.499Z,1.60
2023-07-12T22:26:54.244Z,1.60
2023-07-12T22:29:24.771Z,2.10
2023-07-12T22:31:55.397Z,1.70
2023-07-12T22:34:25.929Z,1.60
2023-07-12T22:36:57.052Z,1.50
2023-07-12T22:39:28.307Z,1.30
2023-07-12T22:41:59.423Z,1.30
2023-07-12T22:44:30.046Z,1.50
2023-07-12T22:47:00.666Z,1.40
2023-07-12T22:49:31.144Z,1.40
2023-07-12T22:52:01.827Z,1.70
2023-07-12T22:54:32.591Z,1.70
2023-07-12T22:57:03.273Z,1.60
2023-07-12T22:59:34.452Z,1.70
2023-07-12T23:02:05.215Z,1.60
2023-07-12T23:04:36.429Z,1.60
2023-07-12T23:07:07.766Z,1.60
2023-07-12T23:09:38.385Z,1.40
2023-07-12T23:12:11.266Z,1.60
2023-07-12T23:14:44.683Z,1.30
2023-07-12T23:17:15.558Z,1.50
2023-07-12T23:19:46.348Z,1.40
2023-07-12T23:22:18.916Z,1.60
2023-07-12T23:27:21.303Z,1.60
2023-07-12T23:29:51.994Z,1.70
2023-07-12T23:32:22.276Z,1.70
2023-07-12T23:34:52.641Z,1.90
2023-07-12T23:37:31.211Z,1.70
2023-07-12T23:40:01.453Z,1.50
2023-07-12T23:42:31.651Z,1.80
2023-07-12T23:45:01.857Z,1.50
2023-07-12T23:47:33.188Z,1.70
2023-07-12T23:50:04.240Z,1.80
2023-07-12T23:52:34.557Z,1.40
2023-07-12T23:55:05.784Z,1.70
2023-07-12T23:57:36.167Z,1.60
